Time;durP1;ratioP1;P1;durP2;ratioP2;P2;SDS_P1;SDS_P2;PMS_P1;PMS_P2;Temp;Humidity;BMP_temperature;BMP_pressure;BME280_temperature;BME280_humidity;BME280_pressure;Samples;Min_cycle;Max_cycle;Signal;HPM_P1;HPM_P2
2022/08/12 00:44:48;;;;;;;1999.90;999.90;;;15.70;99.90;;;;;;5128188;27;20047;-73
2022/08/12 00:47:15;;;;;;;1999.90;999.90;;;15.70;99.90;;;;;;5094276;27;20050;-72
2022/08/12 00:49:41;;;;;;;1999.90;999.90;;;15.70;99.90;;;;;;5125327;27;20039;-73
2022/08/12 00:52:10;;;;;;;1999.90;999.90;;;15.70;99.90;;;;;;5112162;27;20047;-73
2022/08/12 00:54:48;;;;;;;1999.90;999.90;;;15.70;99.90;;;;;;5110382;27;20043;-73
2022/08/12 00:57:21;;;;;;;1999.90;999.90;;;15.60;99.90;;;;;;5111468;27;20505;-73
2022/08/12 01:00:08;;;;;;;1999.90;999.90;;;15.60;99.90;;;;;;5121477;27;20499;-73
2022/08/12 01:02:39;;;;;;;1999.90;999.90;;;15.70;99.90;;;;;;5128434;27;20613;-73
2022/08/12 01:13:25;;;;;;;1999.90;999.90;;;15.70;99.90;;;;;;5127589;27;20047;-73
2022/08/12 01:15:55;;;;;;;1999.90;999.90;;;15.60;99.90;;;;;;5130572;27;20040;-73
2022/08/12 01:18:30;;;;;;;1999.90;999.90;;;15.60;99.90;;;;;;5126724;27;20350;-73
2022/08/12 01:21:10;;;;;;;1999.90;999.90;;;15.50;99.90;;;;;;5111296;27;20084;-73
2022/08/12 01:24:06;;;;;;;1999.90;999.90;;;15.50;99.90;;;;;;5126534;27;20475;-73
2022/08/12 01:26:33;;;;;;;1999.90;999.90;;;15.60;99.90;;;;;;5116585;27;20064;-73
2022/08/12 01:29:02;;;;;;;1999.90;999.90;;;15.60;99.90;;;;;;5110092;27;20050;-73
2022/08/12 01:31:28;;;;;;;1999.90;999.90;;;15.60;99.90;;;;;;5117344;27;20096;-73
2022/08/12 01:34:03;;;;;;;1999.90;999.90;;;15.60;99.90;;;;;;5080548;27;20047;-73
2022/08/12 01:36:40;;;;;;;1999.90;999.90;;;15.70;99.90;;;;;;5121057;27;20067;-73
2022/08/12 01:39:07;;;;;;;1999.90;999.90;;;15.60;99.90;;;;;;5110380;27;20762;-73
2022/08/12 01:41:42;;;;;;;1999.90;999.90;;;15.70;99.90;;;;;;5110994;27;20058;-73
2022/08/12 01:44:09;;;;;;;1999.90;999.90;;;15.70;99.90;;;;;;5119646;27;20043;-73
2022/08/12 01:47:02;;;;;;;1999.90;999.90;;;15.60;99.90;;;;;;5094329;27;20051;-73
2022/08/12 01:49:56;;;;;;;1999.90;999.90;;;15.60;99.90;;;;;;5128859;27;20035;-73
2022/08/12 01:52:55;;;;;;;1999.90;999.90;;;15.60;99.90;;;;;;5120083;27;20440;-73
2022/08/12 01:55:23;;;;;;;1999.90;999.90;;;15.60;99.90;;;;;;5128610;27;20047;-73
2022/08/12 01:57:59;;;;;;;1999.90;999.90;;;15.60;99.90;;;;;;5127458;27;20415;-73
2022/08/12 02:00:38;;;;;;;1999.90;999.90;;;15.50;99.90;;;;;;5128598;27;20043;-73
2022/08/12 02:03:21;;;;;;;1999.90;999.90;;;15.50;99.90;;;;;;5128128;27;20046;-73
2022/08/12 02:11:57;;;;;;;1999.90;999.90;;;15.50;99.90;;;;;;5126247;27;20051;-73
2022/08/12 02:14:29;;;;;;;1999.90;999.90;;;15.40;99.90;;;;;;5127884;27;20067;-73
2022/08/12 02:17:26;;;;;;;1999.90;999.90;;;15.40;99.90;;;;;;5123284;27;20100;-73
2022/08/12 02:20:03;;;;;;;1999.90;999.90;;;15.40;99.90;;;;;;5095517;27;20046;-73
2022/08/12 02:22:42;;;;;;;1999.90;999.90;;;15.40;99.90;;;;;;5128699;27;20067;-73
2022/08/12 02:25:37;;;;;;;1999.90;999.90;;;15.40;99.90;;;;;;5121593;27;20114;-73
2022/08/12 02:28:03;;;;;;;1999.90;999.90;;;15.30;99.90;;;;;;5125367;27;20042;-73
2022/08/12 02:30:31;;;;;;;1999.90;999.90;;;15.30;99.90;;;;;;5093372;28;20043;-73
2022/08/12 02:33:03;;;;;;;1999.90;999.90;;;15.30;99.90;;;;;;5121957;27;20059;-73
2022/08/12 02:35:31;;;;;;;1999.90;999.90;;;15.20;99.90;;;;;;5110605;28;20043;-73
2022/08/12 02:38:00;;;;;;;1999.90;999.90;;;15.20;99.90;;;;;;5128084;27;20039;-73
2022/08/12 02:40:27;;;;;;;1999.90;999.90;;;15.20;99.90;;;;;;5119750;27;20047;-73
2022/08/12 02:43:26;;;;;;;1999.90;999.90;;;15.20;99.90;;;;;;5127674;27;20869;-73
2022/08/12 02:45:56;;;;;;;1999.90;999.90;;;15.20;99.90;;;;;;5118982;27;20096;-73
2022/08/12 02:48:29;;;;;;;1999.90;999.90;;;15.10;99.90;;;;;;5120214;27;20032;-73
2022/08/12 02:51:00;;;;;;;1999.90;999.90;;;15.10;99.90;;;;;;5088325;28;20076;-73
2022/08/12 02:53:27;;;;;;;1999.90;999.90;;;15.10;99.90;;;;;;5126851;28;20023;-73
2022/08/12 02:55:53;;;;;;;1999.90;999.90;;;15.00;99.90;;;;;;5129243;28;20074;-73
2022/08/12 02:58:19;;;;;;;1999.90;999.90;;;15.00;99.90;;;;;;5116190;28;20074;-73
2022/08/12 03:00:46;;;;;;;1999.90;999.90;;;15.00;99.90;;;;;;5128679;28;20035;-73
2022/08/12 03:03:13;;;;;;;1999.90;999.90;;;15.00;99.90;;;;;;5117017;28;20191;-73
2022/08/12 03:06:07;;;;;;;1999.90;999.90;;;15.00;99.90;;;;;;5127478;28;20044;-73
2022/08/12 03:08:42;;;;;;;1999.90;999.90;;;14.90;99.90;;;;;;5085386;28;20503;-73
2022/08/12 03:11:33;;;;;;;1999.90;999.90;;;14.90;99.90;;;;;;5124860;28;20039;-73
2022/08/12 03:14:01;;;;;;;1999.90;999.90;;;14.90;99.90;;;;;;5093962;28;20102;-73
2022/08/12 03:16:29;;;;;;;1999.90;999.90;;;14.80;99.90;;;;;;5122122;28;20104;-73
2022/08/12 03:18:56;;;;;;;1999.90;999.90;;;14.80;99.90;;;;;;5125646;28;20074;-73
2022/08/12 03:21:23;;;;;;;1999.90;999.90;;;14.80;99.90;;;;;;5118312;27;20110;-73
2022/08/12 03:23:52;;;;;;;1999.90;999.90;;;14.80;99.90;;;;;;5130536;27;20039;-73
2022/08/12 03:26:24;;;;;;;1999.90;999.90;;;14.80;99.90;;;;;;5142029;27;20408;-73
2022/08/12 03:28:55;;;;;;;1999.90;999.90;;;14.80;99.90;;;;;;5130106;27;20538;-73
2022/08/12 03:31:24;;;;;;;1999.90;999.90;;;14.70;99.90;;;;;;5129617;27;20633;-73
2022/08/12 03:33:51;;;;;;;1999.90;999.90;;;14.70;99.90;;;;;;5130049;27;20039;-73
2022/08/12 03:36:19;;;;;;;1999.90;999.90;;;14.70;99.90;;;;;;5113407;28;20299;-73
2022/08/12 03:39:18;;;;;;;1999.90;999.90;;;14.70;99.90;;;;;;5127517;27;20035;-72
2022/08/12 03:41:43;;;;;;;1999.90;999.90;;;14.70;99.90;;;;;;5126351;28;20082;-73
2022/08/12 04:01:21;;;;;;;1999.90;999.90;;;14.70;99.90;;;;;;5104773;27;20051;-73
2022/08/12 04:03:51;;;;;;;1999.90;999.90;;;14.70;99.90;;;;;;5134659;27;20395;-73
2022/08/12 04:06:17;;;;;;;1999.90;999.90;;;14.70;99.90;;;;;;5130759;27;20039;-73
2022/08/12 04:08:45;;;;;;;1999.90;999.90;;;14.60;99.90;;;;;;5131844;27;20535;-73
2022/08/12 04:14:05;;;;;;;1999.90;999.90;;;14.60;99.90;;;;;;5122551;27;20043;-73
2022/08/12 04:16:31;;;;;;;1999.90;999.90;;;14.50;99.90;;;;;;5131849;27;20452;-73
2022/08/12 04:18:57;;;;;;;1999.90;999.90;;;14.50;99.90;;;;;;5120404;27;20035;-73
2022/08/12 04:21:23;;;;;;;1999.90;999.90;;;14.50;99.90;;;;;;5128132;27;20046;-73
2022/08/12 04:23:49;;;;;;;1999.90;999.90;;;14.50;99.90;;;;;;5121802;27;20051;-73
2022/08/12 04:26:15;;;;;;;1999.90;999.90;;;14.50;99.90;;;;;;5131592;27;20047;-73
2022/08/12 04:28:40;;;;;;;1999.90;999.90;;;14.50;99.90;;;;;;5131560;27;20031;-73
2022/08/12 04:31:06;;;;;;;1999.90;999.90;;;14.50;99.90;;;;;;5120656;27;20079;-73
2022/08/12 04:33:33;;;;;;;1999.90;999.90;;;14.50;99.90;;;;;;5110551;27;20471;-73
2022/08/12 04:35:59;;;;;;;1999.90;999.90;;;14.50;99.90;;;;;;5130473;27;20532;-73
2022/08/12 04:38:25;;;;;;;1999.90;999.90;;;14.50;99.90;;;;;;5126683;27;20078;-73
2022/08/12 04:40:52;;;;;;;1999.90;999.90;;;14.50;99.90;;;;;;5118722;27;20052;-73
2022/08/12 04:43:18;;;;;;;1999.90;999.90;;;14.60;99.90;;;;;;5129823;27;20039;-73
2022/08/12 04:45:44;;;;;;;1999.90;999.90;;;14.70;99.90;;;;;;5123370;27;20072;-72
2022/08/12 04:48:10;;;;;;;1999.90;999.90;;;14.70;99.90;;;;;;5121250;27;20059;-73
2022/08/12 04:50:36;;;;;;;1999.90;999.90;;;14.90;99.90;;;;;;5112441;27;20509;-73
2022/08/12 04:53:06;;;;;;;1999.90;999.90;;;14.90;99.90;;;;;;5124245;27;20114;-73
2022/08/12 04:55:33;;;;;;;1999.90;999.90;;;14.90;99.90;;;;;;5116779;27;20043;-73
2022/08/12 04:57:59;;;;;;;1999.90;999.90;;;15.00;99.90;;;;;;5108035;27;20054;-73
2022/08/12 05:00:26;;;;;;;1999.90;999.90;;;15.00;99.90;;;;;;5108486;27;20039;-73
2022/08/12 05:02:52;;;;;;;1999.90;999.90;;;15.10;99.90;;;;;;5127984;27;20035;-73
2022/08/12 05:05:19;;;;;;;1999.90;999.90;;;15.10;99.90;;;;;;5125542;27;20089;-73
2022/08/12 05:07:49;;;;;;;1999.90;999.90;;;15.10;99.90;;;;;;5124232;27;20491;-73
2022/08/12 05:10:16;;;;;;;1999.90;999.90;;;15.10;99.90;;;;;;5125878;27;20070;-73
2022/08/12 05:12:46;;;;;;;1999.90;999.90;;;15.20;99.90;;;;;;5129120;27;20041;-73
2022/08/12 05:15:15;;;;;;;1999.90;999.90;;;15.30;99.90;;;;;;5125819;27;20741;-73
2022/08/12 05:17:41;;;;;;;1999.90;999.90;;;15.40;99.90;;;;;;5109132;27;20123;-73
2022/08/12 05:20:14;;;;;;;1999.90;999.90;;;15.40;99.90;;;;;;5125704;27;20087;-74
2022/08/12 05:22:40;;;;;;;1999.90;999.90;;;15.40;99.90;;;;;;5125056;27;20141;-74
2022/08/12 05:25:06;;;;;;;1999.90;999.90;;;15.50;99.90;;;;;;5124182;27;20410;-74
2022/08/12 05:27:33;;;;;;;1999.90;999.90;;;15.50;99.90;;;;;;5119780;27;20063;-74
2022/08/12 05:29:58;;;;;;;1999.90;999.90;;;15.60;99.90;;;;;;5126195;27;20038;-74
2022/08/12 05:32:24;;;;;;;1999.90;999.90;;;15.60;99.90;;;;;;5126712;27;20039;-74
2022/08/12 05:34:52;;;;;;;1999.90;999.90;;;15.70;99.90;;;;;;5138758;27;20113;-74
2022/08/12 05:37:20;;;;;;;1999.90;999.90;;;15.70;99.90;;;;;;5130474;27;20043;-74
2022/08/12 05:39:46;;;;;;;1999.90;999.90;;;15.80;99.90;;;;;;5114667;27;20060;-74
2022/08/12 05:42:11;;;;;;;1999.90;999.90;;;16.00;99.90;;;;;;5130639;27;20046;-74
2022/08/12 05:44:37;;;;;;;1999.90;999.90;;;16.20;99.90;;;;;;5128444;27;20070;-74
2022/08/12 05:47:03;;;;;;;1999.90;999.90;;;16.50;99.90;;;;;;5091833;27;20039;-74
2022/08/12 05:49:29;;;;;;;1999.90;999.90;;;17.30;99.90;;;;;;5127884;27;20572;-74
2022/08/12 05:51:56;;;;;;;1999.90;999.90;;;17.80;99.90;;;;;;5128515;27;20039;-74
2022/08/12 05:54:21;;;;;;;1999.90;999.90;;;17.80;99.90;;;;;;5130123;27;20149;-74
2022/08/12 05:56:47;;;;;;;1999.90;999.90;;;17.60;99.90;;;;;;5130367;27;20125;-74
2022/08/12 05:59:13;;;;;;;1999.90;999.90;;;17.30;99.90;;;;;;5111961;27;20558;-74
2022/08/12 06:01:40;;;;;;;1999.90;999.90;;;17.20;99.90;;;;;;5128277;27;20042;-74
2022/08/12 06:04:07;;;;;;;1999.90;999.90;;;17.10;99.90;;;;;;5122397;27;20031;-74
2022/08/12 06:06:34;;;;;;;1999.90;999.90;;;17.00;99.90;;;;;;5129872;27;20080;-74
2022/08/12 06:09:00;;;;;;;1999.90;999.90;;;17.00;99.90;;;;;;5128651;27;20031;-74
2022/08/12 06:11:26;;;;;;;1999.90;999.90;;;17.00;99.90;;;;;;5120300;27;20031;-74
2022/08/12 06:13:54;;;;;;;1999.90;999.90;;;17.10;99.90;;;;;;5094021;27;20043;-74
2022/08/12 06:16:21;;;;;;;1999.90;999.90;;;17.10;99.90;;;;;;5110414;27;20047;-74
2022/08/12 06:18:47;;;;;;;1999.90;999.90;;;17.20;99.90;;;;;;5119459;27;20108;-74
2022/08/12 06:21:15;;;;;;;1999.90;999.90;;;17.20;99.90;;;;;;5129090;27;20077;-74
2022/08/12 06:23:44;;;;;;;1999.90;999.90;;;17.20;99.90;;;;;;5110277;27;20039;-74
2022/08/12 06:26:11;;;;;;;1999.90;999.90;;;17.30;99.90;;;;;;5123639;27;20073;-74
2022/08/12 06:28:49;;;;;;;1999.90;999.90;;;17.50;99.90;;;;;;5110417;28;20063;-74
2022/08/12 06:31:16;;;;;;;1999.90;999.90;;;17.80;99.90;;;;;;5104601;27;20528;-74
2022/08/12 06:33:44;;;;;;;1999.90;999.90;;;18.30;99.90;;;;;;5128077;27;20066;-74
2022/08/12 06:36:12;;;;;;;1999.90;999.90;;;18.50;99.90;;;;;;5110823;28;20051;-74
2022/08/12 06:38:39;;;;;;;1999.90;999.90;;;18.60;99.90;;;;;;5093844;28;20046;-74
2022/08/12 06:43:51;;;;;;;1999.90;999.90;;;18.60;99.90;;;;;;5129118;27;20051;-74
2022/08/12 06:46:18;;;;;;;1999.90;999.90;;;18.50;99.90;;;;;;5129269;27;20054;-74
2022/08/12 06:48:43;;;;;;;1999.90;999.90;;;18.60;99.90;;;;;;5106128;28;20043;-74
2022/08/12 06:51:10;;;;;;;1999.90;999.90;;;18.70;99.90;;;;;;5110787;28;20039;-74
2022/08/12 06:53:36;;;;;;;1999.90;999.90;;;18.90;99.90;;;;;;5110445;27;20035;-74
2022/08/12 06:56:02;;;;;;;1999.90;999.90;;;19.00;99.90;;;;;;5099300;28;20054;-75
2022/08/12 06:58:30;;;;;;;1999.90;999.90;;;19.40;99.90;;;;;;5125915;27;20087;-75
2022/08/12 07:00:57;;;;;;;1999.90;999.90;;;20.40;99.90;;;;;;5105497;28;20043;-75
2022/08/12 07:03:28;;;;;;;1999.90;999.90;;;21.30;99.90;;;;;;5126201;27;20035;-74
2022/08/12 07:05:55;;;;;;;1999.90;999.90;;;22.20;99.90;;;;;;5095211;28;20192;-75
2022/08/12 07:08:24;;;;;;;1999.90;999.90;;;23.00;99.90;;;;;;5128694;27;20035;-74
2022/08/12 07:10:57;;;;;;;1999.90;999.90;;;23.50;99.90;;;;;;5129387;27;20096;-74
2022/08/12 07:13:37;;;;;;;1999.90;999.90;;;23.90;99.90;;;;;;5122301;27;20035;-75
2022/08/12 07:16:06;;;;;;;1999.90;999.90;;;23.40;99.90;;;;;;5111390;28;20055;-74
2022/08/12 07:18:33;;;;;;;1999.90;999.90;;;23.10;99.90;;;;;;5127320;27;20053;-75
2022/08/12 07:21:01;;;;;;;1999.90;999.90;;;23.80;99.90;;;;;;5121264;27;20085;-75
2022/08/12 07:23:27;;;;;;;1999.90;999.90;;;24.10;99.90;;;;;;5118906;27;20042;-75
2022/08/12 07:25:53;;;;;;;1999.90;999.90;;;23.70;99.90;;;;;;5133207;27;20118;-75
2022/08/12 07:28:26;;;;;;;1999.90;999.90;;;23.30;99.90;;;;;;5131486;27;20376;-75
2022/08/12 07:30:54;;;;;;;1999.90;999.90;;;22.80;99.90;;;;;;5133114;27;20448;-75
2022/08/12 07:33:22;;;;;;;1999.90;999.90;;;22.50;99.90;;;;;;5122633;27;20035;-75
2022/08/12 07:35:49;;;;;;;1999.90;999.90;;;22.30;99.90;;;;;;5132660;27;20490;-74
2022/08/12 07:38:24;;;;;;;1999.90;999.90;;;22.20;99.90;;;;;;5113803;27;20483;-75
2022/08/12 07:40:52;;;;;;;1999.90;999.90;;;22.20;99.90;;;;;;5127193;27;20106;-75
2022/08/12 07:43:18;;;;;;;1999.90;999.90;;;22.10;99.90;;;;;;5132228;27;20569;-75
2022/08/12 07:45:44;;;;;;;1999.90;999.90;;;22.10;99.90;;;;;;5132604;27;20031;-75
2022/08/12 07:48:10;;;;;;;1999.90;999.90;;;22.20;99.90;;;;;;5131184;27;20583;-75
2022/08/12 07:50:35;;;;;;;1999.90;999.90;;;22.10;99.90;;;;;;5131943;27;20476;-74
2022/08/12 07:53:01;;;;;;;1999.90;999.90;;;22.10;99.90;;;;;;5123306;27;20038;-75
2022/08/12 07:55:27;;;;;;;1999.90;999.90;;;22.20;99.90;;;;;;5132479;27;20046;-74
2022/08/12 07:57:58;;;;;;;1999.90;999.90;;;22.20;99.90;;;;;;5132425;27;20550;-75
2022/08/12 08:00:30;;;;;;;1999.90;999.90;;;22.30;99.90;;;;;;5119427;27;20042;-75
2022/08/12 08:02:57;;;;;;;1999.90;999.90;;;22.30;99.90;;;;;;5096245;27;20088;-74
2022/08/12 08:05:24;;;;;;;1999.90;999.90;;;22.40;99.90;;;;;;5132194;27;20100;-74
2022/08/12 08:07:52;;;;;;;1999.90;999.90;;;22.50;99.90;;;;;;5126938;27;20523;-74
2022/08/12 08:10:19;;;;;;;1999.90;999.90;;;22.50;99.90;;;;;;5107122;27;20042;-74
2022/08/12 08:12:55;;;;;;;1999.90;999.90;;;22.60;99.90;;;;;;5117623;27;20039;-74
2022/08/12 08:15:26;;;;;;;1999.90;999.90;;;22.70;99.90;;;;;;5094189;27;20074;-75
2022/08/12 08:18:01;;;;;;;1999.90;999.90;;;22.70;99.90;;;;;;5121191;27;20530;-75
2022/08/12 08:20:29;;;;;;;1999.90;999.90;;;22.80;99.90;;;;;;5124226;27;20444;-75
2022/08/12 08:22:57;;;;;;;1999.90;999.90;;;22.90;99.90;;;;;;5127960;27;20045;-75
2022/08/12 08:25:30;;;;;;;1999.90;999.90;;;22.90;99.90;;;;;;5113303;27;20043;-74
2022/08/12 08:27:56;;;;;;;;;;;23.00;99.90;;;;;;5132355;27;20035;-75
2022/08/12 08:30:22;;;;;;;1999.90;999.90;;;23.10;99.90;;;;;;5129136;27;19919;-74
2022/08/12 08:32:48;;;;;;;1999.90;999.90;;;23.20;99.90;;;;;;5131089;27;20082;-75
2022/08/12 08:35:14;;;;;;;1999.90;999.90;;;23.30;99.90;;;;;;5129914;27;20078;-74
2022/08/12 08:37:43;;;;;;;1999.90;999.90;;;23.40;99.90;;;;;;5129038;27;20038;-75
2022/08/12 08:42:53;;;;;;;1999.90;999.90;;;23.60;99.90;;;;;;5103381;28;20507;-75
2022/08/12 08:45:19;;;;;;;1999.90;999.90;;;23.70;99.90;;;;;;5109345;28;20047;-74
2022/08/12 08:47:46;;;;;;;1999.90;999.90;;;24.00;99.90;;;;;;5108469;28;20874;-74
2022/08/12 08:50:15;;;;;;;1999.90;999.90;;;24.30;99.90;;;;;;5110464;28;20122;-75
2022/08/12 08:52:44;;;;;;;1999.90;999.90;;;25.20;99.90;;;;;;5108353;27;20039;-74
2022/08/12 08:55:12;;;;;;;1999.90;999.90;;;26.30;99.90;;;;;;5109416;28;20048;-75
2022/08/12 08:57:51;;;;;;;1999.90;999.90;;;27.10;99.90;;;;;;5081720;28;20039;-74
2022/08/12 09:00:19;;;;;;;1999.90;999.90;;;27.90;99.90;;;;;;5109198;28;20127;-75
2022/08/12 09:02:46;;;;;;;1999.90;999.90;;;28.40;99.90;;;;;;5110710;28;20085;-75
2022/08/12 09:05:13;;;;;;;1999.90;999.90;;;28.80;99.90;;;;;;5122352;27;20070;-74
2022/08/12 09:07:45;;;;;;;1999.90;999.90;;;29.30;98.80;;;;;;5106359;27;20090;-75
2022/08/12 09:10:15;;;;;;;1999.90;999.90;;;29.70;98.60;;;;;;5104817;28;20050;-74
2022/08/12 09:15:29;;;;;;;1999.90;999.90;;;30.50;96.90;;;;;;5110425;28;20055;-75
2022/08/12 09:17:57;;;;;;;1999.90;999.90;;;30.80;97.60;;;;;;5106861;28;20043;-75
2022/08/12 09:20:24;;;;;;;1999.90;999.90;;;31.20;97.70;;;;;;5101311;28;20560;-74
2022/08/12 09:22:50;;;;;;;1999.90;999.90;;;31.40;94.50;;;;;;5105408;28;20048;-75
2022/08/12 09:25:17;;;;;;;1999.90;999.90;;;31.50;92.30;;;;;;5091817;28;20103;-74
2022/08/12 09:27:43;;;;;;;1999.90;999.90;;;31.50;93.00;;;;;;5110071;28;20381;-74
2022/08/12 09:30:14;;;;;;;1999.90;999.90;;;31.40;94.00;;;;;;5100873;28;20039;-74
2022/08/12 09:32:50;;;;;;;1999.90;999.90;;;31.70;91.80;;;;;;5100915;28;20039;-74
2022/08/12 09:35:22;;;;;;;1999.90;999.90;;;31.70;91.70;;;;;;5113624;27;20043;-74
2022/08/12 09:37:49;;;;;;;;;;;31.90;91.50;;;;;;5109236;28;20055;-74
2022/08/12 09:40:16;;;;;;;1999.90;999.90;;;32.10;80.20;;;;;;5114360;27;19927;-74
2022/08/12 09:45:26;;;;;;;1999.90;999.90;;;32.40;91.10;;;;;;5124612;27;20048;-75
2022/08/12 09:47:53;;;;;;;1999.90;999.90;;;32.50;90.00;;;;;;5121621;27;20061;-74
2022/08/12 09:50:20;;;;;;;1999.90;999.90;;;32.60;85.50;;;;;;5116743;27;20031;-75
2022/08/12 09:52:51;;;;;;;1999.90;999.90;;;32.40;83.40;;;;;;5130394;27;20091;-75
2022/08/12 09:55:18;;;;;;;1999.90;999.90;;;32.20;81.60;;;;;;5129651;27;20035;-74
2022/08/12 09:57:44;;;;;;;1999.90;999.90;;;32.10;83.50;;;;;;5118169;27;20547;-75
2022/08/12 10:00:11;;;;;;;1999.90;999.90;;;32.00;80.10;;;;;;5120238;27;20070;-75
2022/08/12 10:02:37;;;;;;;1999.90;999.90;;;32.00;79.90;;;;;;5128377;27;20394;-74
2022/08/12 10:05:08;;;;;;;1999.90;999.90;;;32.00;79.10;;;;;;5105802;28;20046;-75
2022/08/12 10:07:34;;;;;;;1999.90;999.90;;;32.00;77.70;;;;;;5104710;27;20049;-75
2022/08/12 10:09:59;;;;;;;1999.90;999.90;;;31.80;75.50;;;;;;5091757;27;20035;-75
2022/08/12 10:15:11;;;;;;;1999.90;999.90;;;31.30;78.20;;;;;;5122357;27;20069;-75
2022/08/12 10:17:37;;;;;;;1999.90;999.90;;;31.30;79.70;;;;;;5127301;27;20031;-75
2022/08/12 10:20:03;;;;;;;1999.90;999.90;;;31.40;81.90;;;;;;5115873;27;20108;-74
2022/08/12 10:22:29;;;;;;;1999.90;999.90;;;31.60;81.80;;;;;;5094569;27;20059;-75
2022/08/12 10:30:24;;;;;;;1999.90;999.90;;;31.30;74.80;;;;;;5129750;27;20043;-75
2022/08/12 10:32:58;;;;;;;1999.90;999.90;;;31.30;76.10;;;;;;5101838;28;20414;-75
2022/08/12 10:35:30;;;;;;;1999.90;999.90;;;31.20;71.30;;;;;;5116177;27;20039;-75
2022/08/12 10:38:00;;;;;;;1999.90;999.90;;;31.20;74.20;;;;;;5104198;28;20051;-75
2022/08/12 10:40:28;;;;;;;1999.90;999.90;;;31.20;74.70;;;;;;5114224;27;20506;-75
2022/08/12 10:45:38;;;;;;;1999.90;999.90;;;31.20;73.80;;;;;;5121879;27;20131;-75
2022/08/12 10:48:04;;;;;;;1999.90;999.90;;;31.30;75.90;;;;;;5092394;28;20039;-75
2022/08/12 10:50:30;;;;;;;1999.90;999.90;;;31.50;77.30;;;;;;5113474;27;20027;-75
2022/08/12 10:52:56;;;;;;;1999.90;999.90;;;31.70;75.10;;;;;;5109112;27;20506;-75
2022/08/12 10:55:21;;;;;;;1999.90;999.90;;;31.60;71.10;;;;;;5116658;27;20039;-75
2022/08/12 10:57:48;;;;;;;1999.90;999.90;;;31.80;75.00;;;;;;5084442;27;20205;-75
2022/08/12 11:00:14;;;;;;;1999.90;999.90;;;31.80;70.10;;;;;;5111149;27;20031;-75
2022/08/12 11:02:53;;;;;;;1999.90;999.90;;;31.90;73.80;;;;;;5123326;27;20495;-75
2022/08/12 11:05:19;;;;;;;1999.90;999.90;;;31.90;69.40;;;;;;5101081;27;20964;-75
2022/08/12 11:07:47;;;;;;;1999.90;999.90;;;31.90;70.30;;;;;;5124557;27;20047;-74
2022/08/12 11:10:13;;;;;;;1999.90;999.90;;;31.90;71.10;;;;;;5119188;27;20111;-75
2022/08/12 11:12:44;;;;;;;1999.90;999.90;;;31.90;70.80;;;;;;5108166;27;20031;-75
2022/08/12 11:15:10;;;;;;;1999.90;999.90;;;32.10;72.00;;;;;;5130543;27;20046;-74
2022/08/12 11:17:35;;;;;;;1999.90;999.90;;;32.20;74.20;;;;;;5122753;27;20037;-75
2022/08/12 11:20:01;;;;;;;1999.90;999.90;;;32.40;73.10;;;;;;5098199;27;20095;-75
2022/08/12 11:22:27;;;;;;;1999.90;999.90;;;32.50;72.90;;;;;;5090923;27;20038;-73
2022/08/12 11:24:52;;;;;;;1999.90;999.90;;;32.50;69.80;;;;;;5115923;27;20047;-73
2022/08/12 11:27:18;;;;;;;1999.90;999.90;;;32.50;71.00;;;;;;5130056;27;20077;-73
2022/08/12 11:29:43;;;;;;;1999.90;999.90;;;32.70;73.20;;;;;;5134524;27;20443;-73
2022/08/12 11:32:09;;;;;;;1999.90;999.90;;;32.80;70.00;;;;;;5126468;27;20081;-73
2022/08/12 11:34:35;;;;;;;1999.90;999.90;;;32.80;67.30;;;;;;5135890;27;20039;-74
2022/08/12 11:37:06;;;;;;;1999.90;999.90;;;32.60;66.00;;;;;;5119898;27;20371;-72
2022/08/12 11:39:32;;;;;;;1999.90;999.90;;;32.50;65.20;;;;;;5141511;27;20050;-73
2022/08/12 11:41:59;;;;;;;1999.90;999.90;;;32.40;66.70;;;;;;5138834;27;20521;-73
2022/08/12 11:44:25;;;;;;;1999.90;999.90;;;32.60;69.40;;;;;;5141651;27;20043;-72
2022/08/12 11:46:53;;;;;;;1999.90;999.90;;;32.70;68.60;;;;;;5138589;27;20550;-73
2022/08/12 11:49:21;;;;;;;1999.90;999.90;;;32.80;69.10;;;;;;5139768;27;20509;-73
2022/08/12 11:51:47;;;;;;;1999.90;999.90;;;32.90;68.00;;;;;;5141231;27;20479;-73
2022/08/12 11:54:12;;;;;;;1999.90;999.90;;;33.00;65.40;;;;;;5138133;27;20039;-73
2022/08/12 11:56:38;;;;;;;1999.90;999.90;;;33.00;69.30;;;;;;5127598;27;20054;-73
2022/08/12 11:59:03;;;;;;;1999.90;999.90;;;33.10;68.40;;;;;;5128126;27;20047;-73
2022/08/12 12:01:29;;;;;;;1999.90;999.90;;;33.20;61.00;;;;;;5131371;27;20039;-72
2022/08/12 12:03:55;;;;;;;1999.90;999.90;;;33.00;64.40;;;;;;5132690;27;20110;-73
2022/08/12 12:06:21;;;;;;;1999.90;999.90;;;33.10;65.70;;;;;;5149751;27;20497;-73
2022/08/12 12:08:47;;;;;;;1999.90;999.90;;;33.30;66.80;;;;;;5148062;27;20079;-73
2022/08/12 12:11:13;;;;;;;1999.90;999.90;;;33.30;63.30;;;;;;5136191;27;20087;-73
2022/08/12 12:13:39;;;;;;;1999.90;999.90;;;33.30;63.40;;;;;;5107033;27;20471;-73
2022/08/12 12:16:05;;;;;;;1999.90;999.90;;;33.10;57.30;;;;;;5096281;27;20072;-74
2022/08/12 12:18:32;;;;;;;1999.90;999.90;;;32.90;58.50;;;;;;5126242;27;20492;-74
2022/08/12 12:21:06;;;;;;;1999.90;999.90;;;32.70;60.40;;;;;;5102747;27;20134;-74
2022/08/12 12:23:33;;;;;;;1999.90;999.90;;;32.70;58.80;;;;;;5131423;27;20042;-74
2022/08/12 12:26:05;;;;;;;1999.90;999.90;;;32.80;65.30;;;;;;5108389;27;20054;-74
2022/08/12 12:28:33;;;;;;;1999.90;999.90;;;33.00;60.90;;;;;;5105395;27;20043;-74
2022/08/12 12:30:59;;;;;;;1999.90;999.90;;;33.00;61.50;;;;;;5128306;27;20050;-74
2022/08/12 12:33:25;;;;;;;1999.90;999.90;;;33.00;62.40;;;;;;5111998;27;20376;-74
2022/08/12 12:35:51;;;;;;;1999.90;999.90;;;33.00;58.70;;;;;;5117623;27;20058;-74
2022/08/12 12:38:18;;;;;;;1999.90;999.90;;;32.90;61.40;;;;;;5138760;27;20039;-74
2022/08/12 12:40:45;;;;;;;1999.90;999.90;;;32.80;62.70;;;;;;5135402;27;20099;-74
2022/08/12 12:43:12;;;;;;;1999.90;999.90;;;32.90;61.50;;;;;;5121339;27;20039;-74
2022/08/12 12:45:38;;;;;;;1999.90;999.90;;;32.80;62.30;;;;;;5112556;27;20035;-74
2022/08/12 12:48:22;;;;;;;1999.90;999.90;;;32.90;61.30;;;;;;5138703;27;20084;-74
2022/08/12 12:53:36;;;;;;;1999.90;999.90;;;32.90;60.40;;;;;;5136205;27;20050;-74
2022/08/12 12:56:02;;;;;;;1999.90;999.90;;;33.00;62.60;;;;;;5129332;27;20048;-74
2022/08/12 12:58:28;;;;;;;1999.90;999.90;;;33.10;64.50;;;;;;5120441;27;20240;-74
2022/08/12 13:00:57;;;;;;;1999.90;999.90;;;33.30;61.20;;;;;;5116222;27;20499;-73
2022/08/12 13:03:22;;;;;;;1999.90;999.90;;;33.40;62.90;;;;;;5129264;27;20081;-74
2022/08/12 13:05:49;;;;;;;1999.90;999.90;;;33.40;58.20;;;;;;5114923;27;20067;-74
2022/08/12 13:08:23;;;;;;;1999.90;999.90;;;33.30;61.10;;;;;;5131896;27;20038;-74
2022/08/12 13:10:53;;;;;;;1999.90;999.90;;;33.40;61.90;;;;;;5133321;27;20043;-74
2022/08/12 13:13:20;;;;;;;1999.90;999.90;;;33.50;63.90;;;;;;5130631;27;20417;-74
2022/08/12 13:15:48;;;;;;;1999.90;999.90;;;33.70;62.10;;;;;;5132932;27;20506;-74
2022/08/12 13:18:16;;;;;;;1999.90;999.90;;;33.70;56.70;;;;;;5125728;27;20506;-74
2022/08/12 13:20:43;;;;;;;1999.90;999.90;;;33.50;57.10;;;;;;5117066;27;20415;-74
2022/08/12 13:23:10;;;;;;;1999.90;999.90;;;33.30;57.10;;;;;;5124570;27;20091;-74
2022/08/12 13:25:35;;;;;;;1999.90;999.90;;;33.10;58.00;;;;;;5124342;27;20065;-74
2022/08/12 13:28:02;;;;;;;1999.90;999.90;;;33.00;60.50;;;;;;5127738;27;20023;-74
2022/08/12 13:30:29;;;;;;;1999.90;999.90;;;33.10;59.40;;;;;;5124669;27;20121;-74
2022/08/12 13:32:58;;;;;;;1999.90;999.90;;;33.10;60.80;;;;;;5129753;27;20152;-74
2022/08/12 13:35:28;;;;;;;1999.90;999.90;;;33.30;60.40;;;;;;5127932;27;20045;-74
2022/08/12 13:37:55;;;;;;;1999.90;999.90;;;33.40;54.30;;;;;;5129676;27;20050;-74
2022/08/12 13:40:32;;;;;;;1999.90;999.90;;;33.30;55.90;;;;;;5073141;27;20578;-73
2022/08/12 13:43:00;;;;;;;1999.90;999.90;;;33.20;58.10;;;;;;5083437;28;20465;-73
2022/08/12 13:45:28;;;;;;;1999.90;999.90;;;33.30;58.60;;;;;;5072687;28;20047;-73
2022/08/12 13:48:01;;;;;;;1999.90;999.90;;;33.50;57.50;;;;;;5076871;28;20542;-73
2022/08/12 13:50:34;;;;;;;1999.90;999.90;;;33.50;57.20;;;;;;5070924;28;20054;-73
2022/08/12 13:53:03;;;;;;;1999.90;999.90;;;33.60;57.80;;;;;;5062231;28;20047;-73